sensor_id;sensor_type;location;lat;lon;timestamp;pressure;altitude;pressure_sealevel;temperature;humidity
74921;BME280;63483;47.384;8.860;2024-03-02T00:01:48;93496.31;;;3.46;51.38
74921;BME280;63483;47.384;8.860;2024-03-02T00:04:13;93499.88;;;3.45;51.52
74921;BME280;63483;47.384;8.860;2024-03-02T00:06:38;93511.06;;;3.45;51.65
74921;BME280;63483;47.384;8.860;2024-03-02T00:09:04;93510.22;;;3.45;51.51
74921;BME280;63483;47.384;8.860;2024-03-02T00:11:29;93510.91;;;3.47;51.25
74921;BME280;63483;47.384;8.860;2024-03-02T00:13:55;93518.81;;;3.45;51.24
74921;BME280;63483;47.384;8.860;2024-03-02T00:16:20;93516.22;;;3.45;51.37
74921;BME280;63483;47.384;8.860;2024-03-02T00:18:45;93523.84;;;3.47;51.67
74921;BME280;63483;47.384;8.860;2024-03-02T00:21:11;93525.44;;;3.48;51.69
74921;BME280;63483;47.384;8.860;2024-03-02T00:23:38;93520.25;;;3.48;51.55
74921;BME280;63483;47.384;8.860;2024-03-02T00:26:03;93520.25;;;3.48;51.53
74921;BME280;63483;47.384;8.860;2024-03-02T00:28:34;93515.41;;;3.45;51.71
74921;BME280;63483;47.384;8.860;2024-03-02T00:31:10;93523.34;;;3.43;51.56
74921;BME280;63483;47.384;8.860;2024-03-02T00:33:43;93519.78;;;3.44;51.55
74921;BME280;63483;47.384;8.860;2024-03-02T00:36:10;93529.03;;;2.55;48.79
74921;BME280;63483;47.384;8.860;2024-03-02T00:38:51;93536.38;;;1.56;45.78
74921;BME280;63483;47.384;8.860;2024-03-02T00:41:32;93534.34;;;0.69;47.20
74921;BME280;63483;47.384;8.860;2024-03-02T00:46:24;93539.03;;;0.74;53.52
74921;BME280;63483;47.384;8.860;2024-03-02T00:48:53;93539.41;;;0.15;55.01
74921;BME280;63483;47.384;8.860;2024-03-02T00:51:23;93534.69;;;-0.27;51.28
74921;BME280;63483;47.384;8.860;2024-03-02T00:53:49;93538.31;;;-0.67;50.42
74921;BME280;63483;47.384;8.860;2024-03-02T00:56:16;93544.97;;;-0.94;50.74
74921;BME280;63483;47.384;8.860;2024-03-02T00:58:42;93537.25;;;-1.13;51.15
74921;BME280;63483;47.384;8.860;2024-03-02T01:01:07;93534.53;;;-1.31;51.14
74921;BME280;63483;47.384;8.860;2024-03-02T01:03:33;93531.81;;;-1.40;51.79
74921;BME280;63483;47.384;8.860;2024-03-02T01:05:58;93536.94;;;-1.49;51.26
74921;BME280;63483;47.384;8.860;2024-03-02T01:08:24;93543.28;;;-1.53;50.94
74921;BME280;63483;47.384;8.860;2024-03-02T01:10:50;93537.59;;;-1.57;50.85
74921;BME280;63483;47.384;8.860;2024-03-02T01:13:15;93522.31;;;-1.59;49.89
74921;BME280;63483;47.384;8.860;2024-03-02T01:15:41;93531.78;;;-1.59;51.02
74921;BME280;63483;47.384;8.860;2024-03-02T01:18:06;93542.63;;;-1.26;50.20
74921;BME280;63483;47.384;8.860;2024-03-02T01:20:31;93547.94;;;-0.98;48.78
74921;BME280;63483;47.384;8.860;2024-03-02T01:22:57;93550.63;;;-0.80;47.04
74921;BME280;63483;47.384;8.860;2024-03-02T01:25:22;93534.78;;;-0.66;47.06
74921;BME280;63483;47.384;8.860;2024-03-02T01:27:47;93536.09;;;-0.42;51.04
74921;BME280;63483;47.384;8.860;2024-03-02T01:30:13;93538.97;;;-0.18;49.04
74921;BME280;63483;47.384;8.860;2024-03-02T01:32:38;93535.66;;;-0.00;48.17
74921;BME280;63483;47.384;8.860;2024-03-02T01:35:04;93540.69;;;0.29;52.46
74921;BME280;63483;47.384;8.860;2024-03-02T01:37:30;93540.81;;;0.55;53.66
74921;BME280;63483;47.384;8.860;2024-03-02T01:39:55;93544.94;;;0.84;53.18
74921;BME280;63483;47.384;8.860;2024-03-02T01:42:20;93541.66;;;1.10;54.22
74921;BME280;63483;47.384;8.860;2024-03-02T01:44:46;93552.44;;;1.32;54.25
74921;BME280;63483;47.384;8.860;2024-03-02T01:47:11;93542.00;;;1.51;53.53
74921;BME280;63483;47.384;8.860;2024-03-02T01:49:37;93544.28;;;1.63;53.07
74921;BME280;63483;47.384;8.860;2024-03-02T01:52:07;93549.72;;;1.77;53.93
74921;BME280;63483;47.384;8.860;2024-03-02T01:54:33;93552.19;;;1.87;53.85
74921;BME280;63483;47.384;8.860;2024-03-02T01:56:59;93547.72;;;1.98;53.77
74921;BME280;63483;47.384;8.860;2024-03-02T01:59:24;93553.75;;;2.06;53.30
74921;BME280;63483;47.384;8.860;2024-03-02T02:01:50;93547.97;;;2.12;53.46
74921;BME280;63483;47.384;8.860;2024-03-02T02:04:15;93552.34;;;2.20;53.19
74921;BME280;63483;47.384;8.860;2024-03-02T02:06:41;93554.16;;;2.28;52.99
74921;BME280;63483;47.384;8.860;2024-03-02T02:09:06;93555.31;;;2.34;52.77
74921;BME280;63483;47.384;8.860;2024-03-02T02:11:34;93544.66;;;2.37;53.08
74921;BME280;63483;47.384;8.860;2024-03-02T02:13:59;93541.75;;;2.40;53.19
74921;BME280;63483;47.384;8.860;2024-03-02T02:16:24;93545.00;;;2.42;52.96
74921;BME280;63483;47.384;8.860;2024-03-02T02:18:50;93549.88;;;2.45;52.94
74921;BME280;63483;47.384;8.860;2024-03-02T02:21:15;93544.38;;;2.48;52.66
74921;BME280;63483;47.384;8.860;2024-03-02T02:23:40;93551.19;;;2.49;52.40
74921;BME280;63483;47.384;8.860;2024-03-02T02:26:11;93540.84;;;2.49;52.31
74921;BME280;63483;47.384;8.860;2024-03-02T02:28:36;93544.06;;;2.51;52.38
74921;BME280;63483;47.384;8.860;2024-03-02T02:31:02;93544.06;;;2.51;52.18
74921;BME280;63483;47.384;8.860;2024-03-02T02:33:28;93547.63;;;2.50;52.62
74921;BME280;63483;47.384;8.860;2024-03-02T02:35:53;93548.28;;;2.52;52.63
74921;BME280;63483;47.384;8.860;2024-03-02T02:38:18;93538.59;;;2.54;52.45
74921;BME280;63483;47.384;8.860;2024-03-02T02:40:45;93539.88;;;2.58;52.53
74921;BME280;63483;47.384;8.860;2024-03-02T02:43:10;93531.19;;;2.59;52.63
74921;BME280;63483;47.384;8.860;2024-03-02T02:45:36;93534.41;;;2.61;52.26
74921;BME280;63483;47.384;8.860;2024-03-02T02:48:01;93525.69;;;2.62;52.39
74921;BME280;63483;47.384;8.860;2024-03-02T02:50:27;93532.47;;;2.63;52.35
74921;BME280;63483;47.384;8.860;2024-03-02T02:52:53;93530.69;;;2.64;52.42
74921;BME280;63483;47.384;8.860;2024-03-02T02:55:18;93536.66;;;2.64;52.16
74921;BME280;63483;47.384;8.860;2024-03-02T02:57:43;93533.28;;;2.64;52.01
74921;BME280;63483;47.384;8.860;2024-03-02T03:00:11;93528.91;;;2.64;51.95
74921;BME280;63483;47.384;8.860;2024-03-02T03:02:42;93525.38;;;2.65;52.34
74921;BME280;63483;47.384;8.860;2024-03-02T03:05:12;93527.78;;;2.67;52.00
74921;BME280;63483;47.384;8.860;2024-03-02T03:07:39;93519.88;;;2.69;51.96
74921;BME280;63483;47.384;8.860;2024-03-02T03:10:07;93516.63;;;2.66;52.10
74921;BME280;63483;47.384;8.860;2024-03-02T03:12:33;93524.38;;;2.66;52.15
74921;BME280;63483;47.384;8.860;2024-03-02T03:14:59;93519.22;;;2.66;51.91
74921;BME280;63483;47.384;8.860;2024-03-02T03:17:25;93519.06;;;2.68;51.77
74921;BME280;63483;47.384;8.860;2024-03-02T03:19:50;93526.00;;;2.67;51.69
74921;BME280;63483;47.384;8.860;2024-03-02T03:22:16;93518.09;;;2.69;51.90
74921;BME280;63483;47.384;8.860;2024-03-02T03:24:42;93510.34;;;2.69;51.60
74921;BME280;63483;47.384;8.860;2024-03-02T03:27:07;93509.53;;;2.69;51.51
74921;BME280;63483;47.384;8.860;2024-03-02T03:29:32;93515.66;;;2.67;51.52
74921;BME280;63483;47.384;8.860;2024-03-02T03:31:58;93519.88;;;2.69;51.86
74921;BME280;63483;47.384;8.860;2024-03-02T03:34:23;93516.63;;;2.66;51.99
74921;BME280;63483;47.384;8.860;2024-03-02T03:36:48;93519.22;;;2.66;52.04
74921;BME280;63483;47.384;8.860;2024-03-02T03:39:14;93515.03;;;2.65;52.12
74921;BME280;63483;47.384;8.860;2024-03-02T03:41:40;93518.25;;;2.67;52.11
74921;BME280;63483;47.384;8.860;2024-03-02T03:44:06;93515.66;;;2.67;52.29
74921;BME280;63483;47.384;8.860;2024-03-02T03:46:31;93518.09;;;2.69;52.06
74921;BME280;63483;47.384;8.860;2024-03-02T03:48:56;93522.31;;;2.70;52.02
74921;BME280;63483;47.384;8.860;2024-03-02T03:51:21;93520.69;;;2.69;51.95
74921;BME280;63483;47.384;8.860;2024-03-02T03:53:48;93521.47;;;2.70;51.91
74921;BME280;63483;47.384;8.860;2024-03-02T03:56:13;93519.88;;;2.69;52.08
74921;BME280;63483;47.384;8.860;2024-03-02T03:58:38;93510.34;;;2.69;52.03
74921;BME280;63483;47.384;8.860;2024-03-02T04:01:04;93520.84;;;2.67;52.25
74921;BME280;63483;47.384;8.860;2024-03-02T04:03:29;93514.72;;;2.69;51.94
74921;BME280;63483;47.384;8.860;2024-03-02T04:05:55;93518.91;;;2.70;51.99
74921;BME280;63483;47.384;8.860;2024-03-02T04:08:21;93518.84;;;2.45;51.34
74921;BME280;63483;47.384;8.860;2024-03-02T04:10:46;93511.59;;;1.71;43.68
74921;BME280;63483;47.384;8.860;2024-03-02T04:13:11;93510.00;;;1.08;42.25
74921;BME280;63483;47.384;8.860;2024-03-02T04:15:37;93511.28;;;0.68;42.28
74921;BME280;63483;47.384;8.860;2024-03-02T04:18:02;93517.69;;;1.00;49.22
74921;BME280;63483;47.384;8.860;2024-03-02T04:20:28;93506.06;;;0.60;57.77
74921;BME280;63483;47.384;8.860;2024-03-02T04:22:53;93511.06;;;-0.12;50.45
74921;BME280;63483;47.384;8.860;2024-03-02T04:25:18;93513.38;;;-0.57;49.71
74921;BME280;63483;47.384;8.860;2024-03-02T04:27:45;93521.44;;;-0.99;50.07
74921;BME280;63483;47.384;8.860;2024-03-02T04:30:10;93520.72;;;-1.30;50.22
74921;BME280;63483;47.384;8.860;2024-03-02T04:32:36;93517.88;;;-1.57;50.06
74921;BME280;63483;47.384;8.860;2024-03-02T04:35:01;93523.09;;;-1.78;50.43
74921;BME280;63483;47.384;8.860;2024-03-02T04:37:26;93520.91;;;-1.92;51.08
74921;BME280;63483;47.384;8.860;2024-03-02T04:39:52;93517.91;;;-1.97;51.15
74921;BME280;63483;47.384;8.860;2024-03-02T04:42:17;93517.50;;;-2.02;49.76
74921;BME280;63483;47.384;8.860;2024-03-02T04:44:42;93520.16;;;-2.14;49.73
74921;BME280;63483;47.384;8.860;2024-03-02T04:47:08;93518.13;;;-2.10;49.79
74921;BME280;63483;47.384;8.860;2024-03-02T04:49:33;93522.19;;;-2.17;48.40
74921;BME280;63483;47.384;8.860;2024-03-02T04:51:58;93526.78;;;-2.11;47.58
74921;BME280;63483;47.384;8.860;2024-03-02T04:54:24;93529.50;;;-2.03;48.56
74921;BME280;63483;47.384;8.860;2024-03-02T04:56:49;93524.69;;;-1.86;48.06
74921;BME280;63483;47.384;8.860;2024-03-02T04:59:18;93523.38;;;-1.71;47.77
74921;BME280;63483;47.384;8.860;2024-03-02T05:01:43;93526.91;;;-1.52;48.20
74921;BME280;63483;47.384;8.860;2024-03-02T05:04:09;93522.38;;;-1.20;46.53
74921;BME280;63483;47.384;8.860;2024-03-02T05:06:37;93528.84;;;-0.76;50.90
74921;BME280;63483;47.384;8.860;2024-03-02T05:09:03;93518.75;;;-0.40;52.17
74921;BME280;63483;47.384;8.860;2024-03-02T05:11:28;93528.53;;;-0.06;55.65
74921;BME280;63483;47.384;8.860;2024-03-02T05:14:07;93529.88;;;0.26;55.89
74921;BME280;63483;47.384;8.860;2024-03-02T05:16:34;93535.91;;;-0.31;60.69
74921;BME280;63483;47.384;8.860;2024-03-02T05:18:59;93539.69;;;-0.92;53.73
74921;BME280;63483;47.384;8.860;2024-03-02T05:21:25;93531.00;;;-1.40;51.54
74921;BME280;63483;47.384;8.860;2024-03-02T05:23:50;93537.03;;;-1.80;52.02
74921;BME280;63483;47.384;8.860;2024-03-02T05:26:15;93543.56;;;-2.07;51.93
74921;BME280;63483;47.384;8.860;2024-03-02T05:28:41;93541.28;;;-2.31;52.58
74921;BME280;63483;47.384;8.860;2024-03-02T05:31:10;93541.38;;;-2.43;53.23
74921;BME280;63483;47.384;8.860;2024-03-02T05:33:37;93536.56;;;-2.57;53.23
74921;BME280;63483;47.384;8.860;2024-03-02T05:36:03;93544.28;;;-2.57;52.53
74921;BME280;63483;47.384;8.860;2024-03-02T05:38:29;93536.00;;;-2.61;52.39
74921;BME280;63483;47.384;8.860;2024-03-02T05:40:54;93535.47;;;-2.64;51.58
74921;BME280;63483;47.384;8.860;2024-03-02T05:43:20;93542.75;;;-2.60;51.16
74921;BME280;63483;47.384;8.860;2024-03-02T05:45:45;93534.41;;;-2.62;51.14
74921;BME280;63483;47.384;8.860;2024-03-02T05:48:10;93542.75;;;-2.60;50.83
74921;BME280;63483;47.384;8.860;2024-03-02T05:50:36;93537.22;;;-2.34;50.49
74921;BME280;63483;47.384;8.860;2024-03-02T05:53:01;93531.22;;;-2.13;50.18
74921;BME280;63483;47.384;8.860;2024-03-02T05:55:26;93536.34;;;-2.13;47.59
74921;BME280;63483;47.384;8.860;2024-03-02T05:57:52;93532.03;;;-1.72;54.13
74921;BME280;63483;47.384;8.860;2024-03-02T06:00:32;93540.19;;;-1.08;54.99
74921;BME280;63483;47.384;8.860;2024-03-02T06:02:58;93536.44;;;-0.65;55.08
74921;BME280;63483;47.384;8.860;2024-03-02T06:05:24;93529.81;;;-0.30;54.66
74921;BME280;63483;47.384;8.860;2024-03-02T06:07:50;93537.44;;;-0.01;55.43
74921;BME280;63483;47.384;8.860;2024-03-02T06:10:15;93541.25;;;0.23;55.07
74921;BME280;63483;47.384;8.860;2024-03-02T06:12:41;93526.53;;;0.43;56.08
74921;BME280;63483;47.384;8.860;2024-03-02T06:15:06;93536.00;;;0.61;54.44
74921;BME280;63483;47.384;8.860;2024-03-02T06:17:32;93539.03;;;0.74;54.27
74921;BME280;63483;47.384;8.860;2024-03-02T06:19:57;93537.06;;;0.86;54.57
74921;BME280;63483;47.384;8.860;2024-03-02T06:22:22;93540.38;;;0.96;53.80
74921;BME280;63483;47.384;8.860;2024-03-02T06:24:50;93540.97;;;1.08;54.06
74921;BME280;63483;47.384;8.860;2024-03-02T06:27:15;93552.00;;;1.18;54.64
74921;BME280;63483;47.384;8.860;2024-03-02T06:29:41;93543.41;;;1.27;55.06
74921;BME280;63483;47.384;8.860;2024-03-02T06:32:06;93547.81;;;1.35;54.64
74921;BME280;63483;47.384;8.860;2024-03-02T06:34:31;93544.63;;;1.41;54.33
74921;BME280;63483;47.384;8.860;2024-03-02T06:36:56;93534.66;;;1.47;54.28
74921;BME280;63483;47.384;8.860;2024-03-02T06:39:22;93537.94;;;1.49;54.60
74921;BME280;63483;47.384;8.860;2024-03-02T06:41:47;93542.00;;;1.51;54.04
74921;BME280;63483;47.384;8.860;2024-03-02T06:44:13;93543.28;;;1.55;54.08
74921;BME280;63483;47.384;8.860;2024-03-02T06:46:38;93544.59;;;1.59;54.25
74921;BME280;63483;47.384;8.860;2024-03-02T06:49:04;93554.31;;;1.66;54.23
74921;BME280;63483;47.384;8.860;2024-03-02T06:51:29;93544.50;;;1.69;53.78
74921;BME280;63483;47.384;8.860;2024-03-02T06:53:55;93551.81;;;1.74;53.77
74921;BME280;63483;47.384;8.860;2024-03-02T06:56:20;93541.16;;;1.77;53.81
74921;BME280;63483;47.384;8.860;2024-03-02T06:58:46;93540.84;;;1.80;54.03
74921;BME280;63483;47.384;8.860;2024-03-02T07:01:12;93542.41;;;1.65;53.18
74921;BME280;63483;47.384;8.860;2024-03-02T07:03:38;93546.72;;;0.66;46.71
74921;BME280;63483;47.384;8.860;2024-03-02T07:06:05;93540.53;;;0.03;45.22
74921;BME280;63483;47.384;8.860;2024-03-02T07:08:30;93548.28;;;-0.44;46.30
74921;BME280;63483;47.384;8.860;2024-03-02T07:10:56;93552.94;;;-0.77;46.36
74921;BME280;63483;47.384;8.860;2024-03-02T07:13:22;93545.13;;;-0.86;46.69
74921;BME280;63483;47.384;8.860;2024-03-02T07:15:47;93543.19;;;-0.93;46.40
74921;BME280;63483;47.384;8.860;2024-03-02T07:18:44;93537.69;;;-0.89;46.51
74921;BME280;63483;47.384;8.860;2024-03-02T07:21:16;93535.00;;;-0.40;52.17
74921;BME280;63483;47.384;8.860;2024-03-02T07:23:41;93540.78;;;-0.85;60.20
74921;BME280;63483;47.384;8.860;2024-03-02T07:26:06;93534.81;;;-1.34;53.56
74921;BME280;63483;47.384;8.860;2024-03-02T07:28:32;93536.06;;;-1.79;52.36
74921;BME280;63483;47.384;8.860;2024-03-02T07:31:02;93539.63;;;-2.11;52.51
74921;BME280;63483;47.384;8.860;2024-03-02T07:33:28;93533.47;;;-2.30;53.03
74921;BME280;63483;47.384;8.860;2024-03-02T07:35:54;93532.31;;;-2.47;53.39
74921;BME280;63483;47.384;8.860;2024-03-02T07:38:20;93529.28;;;-2.62;53.30
74921;BME280;63483;47.384;8.860;2024-03-02T07:40:47;93524.66;;;-2.68;53.43
74921;BME280;63483;47.384;8.860;2024-03-02T07:43:12;93526.22;;;-2.76;53.45
74921;BME280;63483;47.384;8.860;2024-03-02T07:45:37;93521.91;;;-2.76;52.73
74921;BME280;63483;47.384;8.860;2024-03-02T07:48:03;93518.03;;;-2.70;51.87
74921;BME280;63483;47.384;8.860;2024-03-02T07:50:31;93519.34;;;-2.76;51.73
74921;BME280;63483;47.384;8.860;2024-03-02T07:52:56;93520.72;;;-2.72;52.39
74921;BME280;63483;47.384;8.860;2024-03-02T07:55:22;93519.63;;;-2.48;52.15
74921;BME280;63483;47.384;8.860;2024-03-02T07:57:50;93513.19;;;-2.33;51.29
74921;BME280;63483;47.384;8.860;2024-03-02T08:00:15;93514.38;;;-2.37;49.76
74921;BME280;63483;47.384;8.860;2024-03-02T08:02:41;93506.28;;;-2.11;47.80
74921;BME280;63483;47.384;8.860;2024-03-02T08:05:07;93506.16;;;-2.00;49.21
74921;BME280;63483;47.384;8.860;2024-03-02T08:07:33;93503.97;;;-1.44;53.47
74921;BME280;63483;47.384;8.860;2024-03-02T08:09:58;93499.13;;;-0.89;55.03
74921;BME280;63483;47.384;8.860;2024-03-02T08:12:24;93495.22;;;-0.45;56.68
74921;BME280;63483;47.384;8.860;2024-03-02T08:14:49;93496.81;;;-0.07;56.32
74921;BME280;63483;47.384;8.860;2024-03-02T08:17:14;93498.69;;;0.29;56.57
74921;BME280;63483;47.384;8.860;2024-03-02T08:19:40;93492.50;;;0.57;56.02
74921;BME280;63483;47.384;8.860;2024-03-02T08:22:05;93478.22;;;0.81;55.79
74921;BME280;63483;47.384;8.860;2024-03-02T08:24:31;93473.56;;;1.03;56.14
74921;BME280;63483;47.384;8.860;2024-03-02T08:26:58;93484.44;;;0.07;57.26
74921;BME280;63483;47.384;8.860;2024-03-02T08:29:24;93478.28;;;-0.48;53.53
74921;BME280;63483;47.384;8.860;2024-03-02T08:31:49;93480.97;;;-0.87;54.15
74921;BME280;63483;47.384;8.860;2024-03-02T08:34:14;93490.72;;;-1.10;54.57
74921;BME280;63483;47.384;8.860;2024-03-02T08:36:40;93481.91;;;-1.27;54.67
74921;BME280;63483;47.384;8.860;2024-03-02T08:39:05;93485.31;;;-1.46;55.05
74921;BME280;63483;47.384;8.860;2024-03-02T08:41:32;93478.28;;;-1.44;57.39
74921;BME280;63483;47.384;8.860;2024-03-02T08:43:58;93476.41;;;-1.03;57.11
74921;BME280;63483;47.384;8.860;2024-03-02T08:46:23;93471.50;;;-0.87;54.72
74921;BME280;63483;47.384;8.860;2024-03-02T08:48:48;93467.81;;;-0.74;53.58
74921;BME280;63483;47.384;8.860;2024-03-02T08:51:14;93468.25;;;-0.89;53.26
74921;BME280;63483;47.384;8.860;2024-03-02T08:53:39;93463.13;;;-0.98;53.06
74921;BME280;63483;47.384;8.860;2024-03-02T08:56:04;93445.88;;;-0.69;53.01
74921;BME280;63483;47.384;8.860;2024-03-02T08:58:31;93437.91;;;-0.75;52.06
74921;BME280;63483;47.384;8.860;2024-03-02T09:00:56;93429.91;;;-0.35;56.72
74921;BME280;63483;47.384;8.860;2024-03-02T09:03:22;93428.09;;;0.39;62.80
74921;BME280;63483;47.384;8.860;2024-03-02T09:05:47;93428.50;;;1.15;62.65
74921;BME280;63483;47.384;8.860;2024-03-02T09:08:12;93420.72;;;1.59;61.51
74921;BME280;63483;47.384;8.860;2024-03-02T09:10:38;93422.81;;;2.07;59.07
74921;BME280;63483;47.384;8.860;2024-03-02T09:13:04;93430.63;;;2.31;58.36
74921;BME280;63483;47.384;8.860;2024-03-02T09:15:30;93412.75;;;2.71;56.38
74921;BME280;63483;47.384;8.860;2024-03-02T09:17:55;93407.09;;;2.92;54.69
74921;BME280;63483;47.384;8.860;2024-03-02T09:20:20;93404.31;;;3.18;55.88
74921;BME280;63483;47.384;8.860;2024-03-02T09:22:45;93403.47;;;3.43;53.58
74921;BME280;63483;47.384;8.860;2024-03-02T09:25:12;93396.31;;;3.53;52.63
74921;BME280;63483;47.384;8.860;2024-03-02T09:27:38;93389.53;;;3.92;51.04
74921;BME280;63483;47.384;8.860;2024-03-02T09:30:07;93393.50;;;4.02;51.51
74921;BME280;63483;47.384;8.860;2024-03-02T09:32:32;93392.22;;;3.98;51.83
74921;BME280;63483;47.384;8.860;2024-03-02T09:34:58;93377.25;;;4.63;49.52
74921;BME280;63483;47.384;8.860;2024-03-02T09:37:23;93383.81;;;4.51;50.27
74921;BME280;63483;47.384;8.860;2024-03-02T09:39:48;93386.78;;;4.48;49.69
74921;BME280;63483;47.384;8.860;2024-03-02T09:42:14;93379.78;;;4.71;49.21
74921;BME280;63483;47.384;8.860;2024-03-02T09:44:39;93379.63;;;4.50;49.74
74921;BME280;63483;47.384;8.860;2024-03-02T09:47:06;93375.78;;;4.60;49.80
74921;BME280;63483;47.384;8.860;2024-03-02T09:49:32;93374.75;;;4.93;47.14
74921;BME280;63483;47.384;8.860;2024-03-02T09:51:57;93374.97;;;5.06;47.76
74921;BME280;63483;47.384;8.860;2024-03-02T09:54:22;93369.28;;;5.26;47.35
74921;BME280;63483;47.384;8.860;2024-03-02T09:56:48;93377.41;;;5.23;48.53
74921;BME280;63483;47.384;8.860;2024-03-02T09:59:13;93373.28;;;5.28;47.67
74921;BME280;63483;47.384;8.860;2024-03-02T10:01:56;93364.13;;;5.03;47.30
74921;BME280;63483;47.384;8.860;2024-03-02T10:04:22;93353.41;;;5.06;46.83
74921;BME280;63483;47.384;8.860;2024-03-02T10:06:47;93362.44;;;5.10;48.10
74921;BME280;63483;47.384;8.860;2024-03-02T10:09:26;93359.75;;;5.18;47.37
74921;BME280;63483;47.384;8.860;2024-03-02T10:11:52;93360.66;;;5.40;46.71
74921;BME280;63483;47.384;8.860;2024-03-02T10:14:17;93364.50;;;5.00;47.20
74921;BME280;63483;47.384;8.860;2024-03-02T10:16:44;93367.75;;;5.46;47.01
74921;BME280;63483;47.384;8.860;2024-03-02T10:19:22;93367.03;;;5.53;47.36
74921;BME280;63483;47.384;8.860;2024-03-02T10:21:51;93369.31;;;6.29;44.33
74921;BME280;63483;47.384;8.860;2024-03-02T10:24:18;93364.25;;;6.21;45.24
74921;BME280;63483;47.384;8.860;2024-03-02T10:26:44;93361.31;;;6.09;45.84
74921;BME280;63483;47.384;8.860;2024-03-02T10:29:10;93374.91;;;5.59;45.88
74921;BME280;63483;47.384;8.860;2024-03-02T10:31:40;93366.31;;;5.44;47.27
74921;BME280;63483;47.384;8.860;2024-03-02T10:34:06;93365.75;;;5.63;47.42
74921;BME280;63483;47.384;8.860;2024-03-02T10:36:35;93356.41;;;5.99;46.61
74921;BME280;63483;47.384;8.860;2024-03-02T10:39:04;93353.16;;;5.45;47.88
74921;BME280;63483;47.384;8.860;2024-03-02T10:41:37;93344.38;;;5.98;46.78
74921;BME280;63483;47.384;8.860;2024-03-02T10:44:04;93351.03;;;5.86;47.06
74921;BME280;63483;47.384;8.860;2024-03-02T10:46:33;93350.97;;;5.64;46.22
74921;BME280;63483;47.384;8.860;2024-03-02T10:48:59;93341.22;;;6.17;44.96
74921;BME280;63483;47.384;8.860;2024-03-02T10:51:26;93350.53;;;5.75;46.84
74921;BME280;63483;47.384;8.860;2024-03-02T10:53:53;93350.50;;;6.27;45.39
74921;BME280;63483;47.384;8.860;2024-03-02T10:56:28;93344.28;;;6.06;45.75
74921;BME280;63483;47.384;8.860;2024-03-02T11:01:47;93332.75;;;6.52;45.38
74921;BME280;63483;47.384;8.860;2024-03-02T11:04:12;93327.47;;;6.67;47.07
74921;BME280;63483;47.384;8.860;2024-03-02T11:06:45;93320.75;;;6.79;45.54
74921;BME280;63483;47.384;8.860;2024-03-02T11:09:13;93323.75;;;6.33;46.64
74921;BME280;63483;47.384;8.860;2024-03-02T11:11:43;93319.28;;;6.70;45.75
74921;BME280;63483;47.384;8.860;2024-03-02T11:14:13;93313.59;;;6.60;45.24
74921;BME280;63483;47.384;8.860;2024-03-02T11:16:42;93317.94;;;6.52;45.63
74921;BME280;63483;47.384;8.860;2024-03-02T11:19:13;93323.91;;;6.68;45.34
74921;BME280;63483;47.384;8.860;2024-03-02T11:21:39;93306.25;;;6.42;46.06
74921;BME280;63483;47.384;8.860;2024-03-02T11:26:52;93303.75;;;6.33;46.29
74921;BME280;63483;47.384;8.860;2024-03-02T11:32:02;93306.69;;;6.45;46.72
74921;BME280;63483;47.384;8.860;2024-03-02T11:34:34;93302.06;;;6.69;45.93
74921;BME280;63483;47.384;8.860;2024-03-02T11:37:03;93299.97;;;7.14;44.97
74921;BME280;63483;47.384;8.860;2024-03-02T11:39:29;93295.16;;;6.55;45.96
74921;BME280;63483;47.384;8.860;2024-03-02T11:41:56;93281.53;;;6.52;45.43
74921;BME280;63483;47.384;8.860;2024-03-02T11:44:22;93289.81;;;6.63;44.85
74921;BME280;63483;47.384;8.860;2024-03-02T11:47:00;93275.94;;;6.56;44.58
74921;BME280;63483;47.384;8.860;2024-03-02T11:52:05;93272.75;;;6.53;45.24
74921;BME280;63483;47.384;8.860;2024-03-02T11:54:36;93270.25;;;6.45;45.06
74921;BME280;63483;47.384;8.860;2024-03-02T11:57:05;93271.00;;;6.96;44.82
74921;BME280;63483;47.384;8.860;2024-03-02T11:59:31;93269.66;;;6.43;43.93
74921;BME280;63483;47.384;8.860;2024-03-02T12:01:57;93266.84;;;6.66;44.80
74921;BME280;63483;47.384;8.860;2024-03-02T12:04:23;93261.25;;;6.69;43.04
74921;BME280;63483;47.384;8.860;2024-03-02T12:06:55;93261.34;;;6.83;42.57
74921;BME280;63483;47.384;8.860;2024-03-02T12:09:21;93253.81;;;6.95;41.42
74921;BME280;63483;47.384;8.860;2024-03-02T12:11:46;93255.84;;;7.06;43.18
74921;BME280;63483;47.384;8.860;2024-03-02T12:14:12;93246.97;;;7.29;40.74
74921;BME280;63483;47.384;8.860;2024-03-02T12:16:44;93245.97;;;7.30;41.21
74921;BME280;63483;47.384;8.860;2024-03-02T12:19:09;93257.94;;;7.17;40.03
74921;BME280;63483;47.384;8.860;2024-03-02T12:21:34;93245.03;;;7.02;41.18
74921;BME280;63483;47.384;8.860;2024-03-02T12:24:01;93239.31;;;7.62;40.40
74921;BME280;63483;47.384;8.860;2024-03-02T12:26:27;93251.00;;;6.96;39.99
74921;BME280;63483;47.384;8.860;2024-03-02T12:28:52;93246.78;;;7.37;40.01
74921;BME280;63483;47.384;8.860;2024-03-02T12:31:18;93234.41;;;7.39;40.17
74921;BME280;63483;47.384;8.860;2024-03-02T12:33:43;93221.50;;;7.66;38.61
74921;BME280;63483;47.384;8.860;2024-03-02T12:36:13;93230.84;;;7.60;39.03
74921;BME280;63483;47.384;8.860;2024-03-02T12:38:43;93226.78;;;7.44;38.77
74921;BME280;63483;47.384;8.860;2024-03-02T12:41:09;93220.47;;;7.67;37.68
74921;BME280;63483;47.384;8.860;2024-03-02T12:43:34;93213.94;;;7.36;38.64
74921;BME280;63483;47.384;8.860;2024-03-02T12:45:59;93208.34;;;7.39;39.28
74921;BME280;63483;47.384;8.860;2024-03-02T12:48:25;93217.09;;;7.25;38.99
74921;BME280;63483;47.384;8.860;2024-03-02T12:50:50;93221.28;;;7.19;41.37
74921;BME280;63483;47.384;8.860;2024-03-02T12:53:16;93205.50;;;7.34;40.39
74921;BME280;63483;47.384;8.860;2024-03-02T12:55:42;93203.28;;;7.79;39.53
74921;BME280;63483;47.384;8.860;2024-03-02T12:58:08;93203.09;;;7.32;40.04
74921;BME280;63483;47.384;8.860;2024-03-02T13:00:34;93214.31;;;7.26;38.33
74921;BME280;63483;47.384;8.860;2024-03-02T13:03:00;93200.66;;;7.17;38.46
74921;BME280;63483;47.384;8.860;2024-03-02T13:05:31;93193.88;;;7.30;38.77
74921;BME280;63483;47.384;8.860;2024-03-02T13:07:58;93195.75;;;7.49;40.21
74921;BME280;63483;47.384;8.860;2024-03-02T13:10:25;93190.44;;;7.84;38.74
74921;BME280;63483;47.384;8.860;2024-03-02T13:12:50;93194.75;;;7.44;38.93
74921;BME280;63483;47.384;8.860;2024-03-02T13:15:15;93182.06;;;8.22;37.65
74921;BME280;63483;47.384;8.860;2024-03-02T13:17:41;93192.06;;;8.19;38.65